createdAt,value
2022-11-03T00:00:11.471Z,5.37
2022-11-03T00:02:44.256Z,4.30
2022-11-03T00:05:34.468Z,5.40
2022-11-03T00:08:06.529Z,5.30
2022-11-03T00:10:38.272Z,5.70
2022-11-03T00:13:09.937Z,6.60
2022-11-03T00:15:48.853Z,5.70
2022-11-03T00:18:20.605Z,6.03
2022-11-03T00:21:00.541Z,5.40
2022-11-03T00:23:35.251Z,4.97
2022-11-03T00:26:28.584Z,5.00
2022-11-03T00:29:06.418Z,5.53
2022-11-03T00:31:40.424Z,4.75
2022-11-03T00:34:12.596Z,5.30
2022-11-03T00:36:44.993Z,5.60
2022-11-03T00:39:16.740Z,4.97
2022-11-03T00:41:48.418Z,5.30
2022-11-03T00:44:20.077Z,5.00
2022-11-03T00:46:51.736Z,4.77
2022-11-03T00:49:23.392Z,4.90
2022-11-03T00:51:55.062Z,4.77
2022-11-03T00:54:26.804Z,5.70
2022-11-03T00:56:58.463Z,5.40
2022-11-03T00:59:30.156Z,5.57
2022-11-03T01:02:02.028Z,6.20
2022-11-03T01:04:52.249Z,5.43
2022-11-03T01:07:24.023Z,6.40
2022-11-03T01:09:55.676Z,6.03
2022-11-03T01:12:27.883Z,5.30
2022-11-03T01:14:59.542Z,5.77
2022-11-03T01:17:31.291Z,6.30
2022-11-03T01:20:03.977Z,5.70
2022-11-03T01:22:35.660Z,5.83
2022-11-03T01:25:07.724Z,6.50
2022-11-03T01:27:39.465Z,7.83
2022-11-03T01:30:11.598Z,6.20
2022-11-03T01:32:43.286Z,7.53
2022-11-03T01:35:15.073Z,6.23
2022-11-03T01:37:46.832Z,6.83
2022-11-03T01:40:19.870Z,6.33
2022-11-03T01:42:51.545Z,7.43
2022-11-03T01:45:23.265Z,6.77
2022-11-03T01:47:54.985Z,6.80
2022-11-03T01:50:27.232Z,6.37
2022-11-03T01:52:59.321Z,6.07
2022-11-03T01:55:37.393Z,8.37
2022-11-03T01:58:15.120Z,6.30
2022-11-03T02:00:49.193Z,6.10
2022-11-03T02:03:23.076Z,5.83
2022-11-03T02:05:56.285Z,5.83
2022-11-03T02:08:53.295Z,6.50
2022-11-03T02:11:43.952Z,6.27
2022-11-03T02:14:15.861Z,7.40
2022-11-03T02:16:52.921Z,6.20
2022-11-03T02:19:39.324Z,6.80
2022-11-03T02:22:33.495Z,7.10
2022-11-03T02:25:17.229Z,6.33
2022-11-03T02:27:49.168Z,6.13
2022-11-03T02:30:20.911Z,4.80
2022-11-03T02:33:08.352Z,5.40
2022-11-03T02:35:45.566Z,5.77
2022-11-03T02:38:19.158Z,5.37
2022-11-03T02:40:54.457Z,6.10
2022-11-03T02:43:28.057Z,5.00
2022-11-03T02:46:00.633Z,5.47
2022-11-03T02:48:33.017Z,5.90
2022-11-03T02:51:05.196Z,5.00
2022-11-03T02:53:42.777Z,5.03
2022-11-03T02:56:18.932Z,8.03
2022-11-03T02:59:02.697Z,5.10
2022-11-03T03:01:47.438Z,5.93
2022-11-03T03:04:49.480Z,5.27
2022-11-03T03:07:27.400Z,5.33
2022-11-03T03:10:07.783Z,5.40
2022-11-03T03:12:43.504Z,5.27
2022-11-03T03:15:16.661Z,5.53
2022-11-03T03:18:04.439Z,5.33
2022-11-03T03:20:47.285Z,4.00
2022-11-03T03:23:25.393Z,5.10
2022-11-03T03:26:17.365Z,4.90
2022-11-03T03:28:57.787Z,4.63
2022-11-03T03:31:35.190Z,5.13
2022-11-03T03:34:23.720Z,5.50
2022-11-03T03:37:01.237Z,4.70
2022-11-03T03:39:37.633Z,5.53
2022-11-03T03:42:11.771Z,6.30
2022-11-03T03:44:44.565Z,4.67
2022-11-03T03:47:30.864Z,5.57
2022-11-03T03:50:03.025Z,7.33
2022-11-03T03:52:35.964Z,5.50
2022-11-03T03:55:16.473Z,4.90
2022-11-03T03:57:48.374Z,5.87
2022-11-03T04:00:20.292Z,5.03
2022-11-03T04:02:52.047Z,5.00
2022-11-03T04:05:23.749Z,6.47
2022-11-03T04:07:55.499Z,5.20
2022-11-03T04:10:27.228Z,5.27
2022-11-03T04:13:17.369Z,6.00
2022-11-03T04:15:49.090Z,5.90
2022-11-03T04:18:40.797Z,5.97
2022-11-03T04:21:32.632Z,5.43
2022-11-03T04:24:04.458Z,5.80
2022-11-03T04:26:36.199Z,7.40
2022-11-03T04:29:10.964Z,5.27
2022-11-03T04:31:42.733Z,5.27
2022-11-03T04:34:14.475Z,4.80
2022-11-03T04:36:46.193Z,5.50
2022-11-03T04:39:19.923Z,5.10
2022-11-03T04:41:51.791Z,5.07
2022-11-03T04:44:23.502Z,5.77
2022-11-03T04:46:55.157Z,5.40
2022-11-03T04:49:26.812Z,5.90
2022-11-03T04:51:58.512Z,6.07
2022-11-03T04:54:30.197Z,5.50
2022-11-03T04:57:09.053Z,6.80
2022-11-03T04:59:46.756Z,7.30
2022-11-03T05:02:21.570Z,7.73
2022-11-03T05:04:53.272Z,7.50
2022-11-03T05:07:36.156Z,6.60
2022-11-03T05:10:12.852Z,6.57
2022-11-03T05:12:46.350Z,6.80
2022-11-03T05:15:36.985Z,7.00
2022-11-03T05:18:17.909Z,6.87
2022-11-03T05:20:53.549Z,6.60
2022-11-03T05:23:29.097Z,6.73
2022-11-03T05:26:00.937Z,6.50
2022-11-03T05:28:37.616Z,7.03
2022-11-03T05:31:27.528Z,7.40
2022-11-03T05:34:01.847Z,7.07
2022-11-03T05:36:33.644Z,7.60
2022-11-03T05:39:36.588Z,7.60
2022-11-03T05:42:23.276Z,9.93
2022-11-03T05:44:55.520Z,6.90
2022-11-03T05:47:39.809Z,6.40
2022-11-03T05:50:21.570Z,6.43
2022-11-03T05:53:29.219Z,7.37
2022-11-03T05:56:03.780Z,5.73
2022-11-03T05:58:38.252Z,6.60
2022-11-03T06:01:24.934Z,7.30
2022-11-03T06:04:00.303Z,7.07
2022-11-03T06:06:38.428Z,6.47
2022-11-03T06:09:15.953Z,6.43
2022-11-03T06:11:47.697Z,7.20
2022-11-03T06:14:24.341Z,7.27
2022-11-03T06:17:01.309Z,7.80
2022-11-03T06:19:39.586Z,6.47
2022-11-03T06:22:29.461Z,6.37
2022-11-03T06:25:24.183Z,7.47
2022-11-03T06:28:01.176Z,7.70
2022-11-03T06:30:36.019Z,9.13
2022-11-03T06:33:25.158Z,11.00
2022-11-03T06:36:12.556Z,11.27
2022-11-03T06:38:50.422Z,10.43
2022-11-03T06:41:28.677Z,11.18
2022-11-03T06:44:02.712Z,9.80
2022-11-03T06:46:34.428Z,9.77
2022-11-03T06:49:28.449Z,9.87
2022-11-03T06:52:25.931Z,10.80
2022-11-03T06:55:16.663Z,10.40
2022-11-03T06:57:51.291Z,14.90
2022-11-03T07:00:34.591Z,9.70
2022-11-03T07:03:27.824Z,9.70
2022-11-03T07:06:11.073Z,9.77
2022-11-03T07:08:48.611Z,10.57
2022-11-03T07:11:32.773Z,10.90
2022-11-03T07:14:19.467Z,10.33
2022-11-03T07:16:57.810Z,9.60
2022-11-03T07:19:34.185Z,9.20
2022-11-03T07:22:26.123Z,9.37
2022-11-03T07:25:03.409Z,7.83
2022-11-03T07:27:39.074Z,7.80
2022-11-03T07:30:21.761Z,11.10
2022-11-03T07:32:55.844Z,11.10
2022-11-03T07:35:53.684Z,10.70
2022-11-03T07:38:28.023Z,7.50
2022-11-03T07:41:00.880Z,7.10
2022-11-03T07:43:35.960Z,8.03
2022-11-03T07:46:18.491Z,7.67
2022-11-03T07:49:02.024Z,8.20
2022-11-03T07:51:37.608Z,8.07
2022-11-03T07:54:17.537Z,8.37
2022-11-03T07:57:11.261Z,5.87
2022-11-03T07:59:45.349Z,6.63
2022-11-03T08:02:42.839Z,7.80
2022-11-03T08:05:14.858Z,7.30
2022-11-03T08:07:46.641Z,7.70
2022-11-03T08:10:18.399Z,7.33
2022-11-03T08:12:50.551Z,5.83
2022-11-03T08:15:22.341Z,6.20
2022-11-03T08:17:56.248Z,6.40
2022-11-03T08:20:28.169Z,7.13
2022-11-03T08:23:23.976Z,6.30
2022-11-03T08:25:51.674Z,7.63
2022-11-03T08:28:23.622Z,7.38
2022-11-03T08:30:55.320Z,7.07
2022-11-03T08:33:30.773Z,8.40
2022-11-03T08:36:03.986Z,7.20
2022-11-03T08:38:36.052Z,6.70
2022-11-03T08:41:07.949Z,6.57
2022-11-03T08:43:39.767Z,6.63
2022-11-03T08:46:17.795Z,7.70
2022-11-03T08:48:52.445Z,6.90
2022-11-03T08:51:24.452Z,7.90
2022-11-03T08:53:56.226Z,6.60
2022-11-03T08:56:27.910Z,7.40
2022-11-03T08:58:59.681Z,6.10
2022-11-03T09:01:31.395Z,8.73
2022-11-03T09:04:03.694Z,7.30
2022-11-03T09:06:35.455Z,7.07
2022-11-03T09:11:59.390Z,6.90
2022-11-03T09:14:31.100Z,5.83
2022-11-03T09:19:39.365Z,6.60
2022-11-03T09:22:11.222Z,6.50
2022-11-03T09:24:43.021Z,6.73
2022-11-03T09:27:14.715Z,5.30
2022-11-03T09:30:11.745Z,5.70
2022-11-03T09:32:38.982Z,5.93
2022-11-03T09:35:11.908Z,6.73
2022-11-03T09:37:44.111Z,7.20
2022-11-03T09:40:17.280Z,6.30
2022-11-03T09:42:50.002Z,8.00
2022-11-03T09:45:21.777Z,5.83
2022-11-03T09:47:53.623Z,7.33
2022-11-03T09:50:25.303Z,6.80
2022-11-03T09:52:57.498Z,6.97
2022-11-03T09:55:29.491Z,7.33
2022-11-03T09:58:09.570Z,6.53
2022-11-03T10:00:41.718Z,6.07
2022-11-03T10:03:16.999Z,5.57
2022-11-03T10:05:48.752Z,6.13
2022-11-03T10:08:27.288Z,6.30
2022-11-03T10:11:00.621Z,9.00
2022-11-03T10:13:50.424Z,5.83
2022-11-03T10:16:24.680Z,6.97
2022-11-03T10:18:57.464Z,5.67
2022-11-03T10:21:34.130Z,5.50
2022-11-03T10:24:06.097Z,6.17
2022-11-03T10:26:49.667Z,6.83
2022-11-03T10:29:23.996Z,5.30
2022-11-03T10:31:58.691Z,6.20
2022-11-03T10:34:36.517Z,6.50
2022-11-03T10:37:25.456Z,6.83
2022-11-03T10:39:58.655Z,6.07
2022-11-03T10:42:35.341Z,7.80
2022-11-03T10:45:18.221Z,6.90
2022-11-03T10:48:01.021Z,7.70
2022-11-03T10:50:32.900Z,6.43
2022-11-03T10:53:04.990Z,7.40
2022-11-03T10:58:13.715Z,8.00
2022-11-03T11:00:45.501Z,7.03
2022-11-03T11:03:20.656Z,8.53
2022-11-03T11:05:52.809Z,6.23
2022-11-03T11:08:24.674Z,6.53
2022-11-03T11:10:56.630Z,7.37
2022-11-03T11:13:28.804Z,6.40
2022-11-03T11:16:02.033Z,7.67
2022-11-03T11:18:33.932Z,6.50
2022-11-03T11:21:17.723Z,7.93
2022-11-03T11:23:49.791Z,7.63
2022-11-03T11:26:31.543Z,7.93
2022-11-03T11:29:09.243Z,9.20
2022-11-03T11:31:42.355Z,10.00
2022-11-03T11:34:17.430Z,6.83
2022-11-03T11:36:54.885Z,6.10
2022-11-03T11:39:26.652Z,6.53
2022-11-03T11:42:08.224Z,5.80
2022-11-03T11:44:40.173Z,5.50
2022-11-03T11:47:47.517Z,4.73
2022-11-03T11:50:29.217Z,5.87
2022-11-03T11:53:07.152Z,5.60
2022-11-03T11:55:46.858Z,5.17
2022-11-03T11:58:26.099Z,5.63
2022-11-03T12:00:59.980Z,4.77
2022-11-03T12:03:43.038Z,5.20
2022-11-03T12:06:15.273Z,5.40
2022-11-03T12:08:46.945Z,5.70
2022-11-03T12:11:46.057Z,4.87
2022-11-03T12:14:37.753Z,5.77
2022-11-03T12:17:18.729Z,5.30
2022-11-03T12:19:52.566Z,4.63
2022-11-03T12:22:24.257Z,5.07
2022-11-03T12:25:04.729Z,6.13
2022-11-03T12:27:36.422Z,5.53
2022-11-03T12:30:19.077Z,6.50
2022-11-03T12:32:52.044Z,5.80
2022-11-03T12:35:23.810Z,5.13
2022-11-03T12:37:55.505Z,4.80
2022-11-03T12:40:27.898Z,4.53
2022-11-03T12:42:59.610Z,5.73
2022-11-03T12:45:31.683Z,4.63
2022-11-03T12:48:04.751Z,4.67
2022-11-03T12:50:37.617Z,5.47
2022-11-03T12:53:09.696Z,6.20
2022-11-03T12:55:44.607Z,5.73
2022-11-03T12:58:16.710Z,5.50
2022-11-03T13:00:53.849Z,5.17
2022-11-03T13:03:27.436Z,4.93
2022-11-03T13:05:59.882Z,4.90
2022-11-03T13:08:31.919Z,5.33
2022-11-03T13:11:03.892Z,4.90
2022-11-03T13:13:35.557Z,6.40
2022-11-03T13:16:07.526Z,5.40
2022-11-03T13:18:39.398Z,7.93
2022-11-03T13:21:11.140Z,5.80
2022-11-03T13:23:43.085Z,6.30
2022-11-03T13:26:14.898Z,6.40
2022-11-03T13:28:46.681Z,6.80
2022-11-03T13:31:18.474Z,10.00
2022-11-03T13:33:51.755Z,6.90
2022-11-03T13:36:23.561Z,5.77
2022-11-03T13:38:55.252Z,5.80
2022-11-03T13:41:27.334Z,5.77
2022-11-03T13:43:59.042Z,5.70
2022-11-03T13:46:31.626Z,5.97
2022-11-03T13:51:55.694Z,5.90
2022-11-03T14:00:16.944Z,5.63
2022-11-03T14:05:42.597Z,8.43
2022-11-03T14:08:14.389Z,8.30
2022-11-03T14:10:50.529Z,10.90
2022-11-03T14:13:22.307Z,11.10
2022-11-03T14:15:53.994Z,9.13
2022-11-03T14:18:25.681Z,7.67
2022-11-03T14:20:57.346Z,7.00
2022-11-03T14:23:29.125Z,5.40
2022-11-03T14:26:14.178Z,5.60
2022-11-03T14:28:53.446Z,6.03
2022-11-03T14:31:26.479Z,6.13
2022-11-03T14:33:58.381Z,7.20
2022-11-03T14:36:30.160Z,7.43
2022-11-03T14:39:03.321Z,6.77
2022-11-03T14:41:53.603Z,7.10
2022-11-03T14:44:25.401Z,5.33
2022-11-03T14:46:57.729Z,5.60
2022-11-03T14:49:30.629Z,5.83
2022-11-03T14:52:03.414Z,6.37
2022-11-03T14:54:36.347Z,7.60
2022-11-03T14:57:08.143Z,7.03
2022-11-03T14:59:39.918Z,7.67
2022-11-03T15:02:11.986Z,7.13
2022-11-03T15:04:43.716Z,7.40
2022-11-03T15:07:16.364Z,7.63
2022-11-03T15:09:48.119Z,8.20
2022-11-03T15:12:19.885Z,5.87
2022-11-03T15:14:51.656Z,5.83
2022-11-03T15:17:23.391Z,5.23
2022-11-03T15:19:55.075Z,4.93
2022-11-03T15:25:21.768Z,6.00
2022-11-03T15:27:58.321Z,6.10
2022-11-03T15:30:30.072Z,6.03
2022-11-03T15:33:01.927Z,6.40
2022-11-03T15:35:33.859Z,6.20
2022-11-03T15:38:05.907Z,6.63
2022-11-03T15:40:37.878Z,6.90
2022-11-03T15:43:10.222Z,7.20
2022-11-03T15:45:43.506Z,5.50
2022-11-03T15:48:16.226Z,6.87
2022-11-03T15:50:48.003Z,7.27
2022-11-03T15:53:20.327Z,5.70
2022-11-03T15:55:52.014Z,6.47
2022-11-03T15:58:24.474Z,6.20
2022-11-03T16:01:03.425Z,7.40
2022-11-03T16:03:35.455Z,5.70
2022-11-03T16:06:07.381Z,6.23
2022-11-03T16:08:40.329Z,5.77
2022-11-03T16:11:14.304Z,7.53
2022-11-03T16:13:46.098Z,6.97
2022-11-03T16:16:17.765Z,6.90
2022-11-03T16:18:50.581Z,6.30
2022-11-03T16:21:22.235Z,6.60
2022-11-03T16:23:53.945Z,6.53
2022-11-03T16:26:25.642Z,7.37
2022-11-03T16:29:00.744Z,7.50
2022-11-03T16:31:32.489Z,7.10
2022-11-03T16:34:04.736Z,8.87
2022-11-03T16:36:37.143Z,8.80
2022-11-03T16:39:10.624Z,7.17
2022-11-03T16:41:42.386Z,8.30
2022-11-03T16:44:14.119Z,6.90
2022-11-03T16:46:45.818Z,9.13
2022-11-03T16:49:17.510Z,6.77
2022-11-03T16:51:49.278Z,7.40
2022-11-03T16:54:21.047Z,7.20
2022-11-03T16:56:54.862Z,6.80
2022-11-03T16:59:26.810Z,6.60
2022-11-03T17:01:58.709Z,7.80
2022-11-03T17:04:30.527Z,7.77
2022-11-03T17:07:02.276Z,7.10
2022-11-03T17:09:33.944Z,6.97
2022-11-03T17:12:05.766Z,7.13
2022-11-03T17:14:37.559Z,7.90
2022-11-03T17:17:09.231Z,6.50
2022-11-03T17:19:41.097Z,6.20
2022-11-03T17:22:13.361Z,6.93
2022-11-03T17:24:45.044Z,7.33
2022-11-03T17:27:22.853Z,7.63
2022-11-03T17:29:57.888Z,8.00
2022-11-03T17:32:34.762Z,8.00
2022-11-03T17:35:21.636Z,9.33
2022-11-03T17:37:53.653Z,9.30
2022-11-03T17:40:26.416Z,8.90
2022-11-03T17:42:58.190Z,8.03
2022-11-03T17:45:29.981Z,8.40
2022-11-03T17:48:01.682Z,7.80
2022-11-03T17:50:34.769Z,8.50
2022-11-03T17:53:13.220Z,8.60
2022-11-03T17:55:47.179Z,8.43
2022-11-03T17:58:35.988Z,8.30
2022-11-03T18:01:09.519Z,9.30
2022-11-03T18:03:41.225Z,9.80
2022-11-03T18:06:16.732Z,9.40
2022-11-03T18:08:49.158Z,9.67
2022-11-03T18:11:46.502Z,8.23
2022-11-03T18:14:19.221Z,8.40
2022-11-03T18:16:51.630Z,7.83
2022-11-03T18:19:23.520Z,8.07
2022-11-03T18:21:55.337Z,8.50
2022-11-03T18:24:27.606Z,9.07
2022-11-03T18:26:59.280Z,8.57
2022-11-03T18:29:30.967Z,8.63
2022-11-03T18:32:03.782Z,8.40
2022-11-03T18:34:35.657Z,8.60
2022-11-03T18:37:12.267Z,9.17
2022-11-03T18:39:44.033Z,8.90
2022-11-03T18:42:16.539Z,8.50
2022-11-03T18:44:49.069Z,8.30
2022-11-03T18:47:20.885Z,11.20
2022-11-03T18:49:52.596Z,16.67
2022-11-03T18:52:24.248Z,9.47
2022-11-03T18:54:56.487Z,8.93
2022-11-03T18:57:28.205Z,8.10
2022-11-03T19:00:00.854Z,8.93
2022-11-03T19:02:32.654Z,8.37
2022-11-03T19:05:08.319Z,9.03
2022-11-03T19:07:47.725Z,8.80
2022-11-03T19:10:22.832Z,9.30
2022-11-03T19:12:54.928Z,7.87
2022-11-03T19:15:26.691Z,9.07
2022-11-03T19:17:59.502Z,7.50
2022-11-03T19:20:31.202Z,7.90
2022-11-03T19:23:02.941Z,8.20
2022-11-03T19:25:34.652Z,7.50
2022-11-03T19:28:07.199Z,7.93
2022-11-03T19:30:39.186Z,7.87
2022-11-03T19:33:23.656Z,8.70
2022-11-03T19:35:57.877Z,7.90
2022-11-03T19:38:29.716Z,8.27
2022-11-03T19:41:20.241Z,8.20
2022-11-03T19:43:51.992Z,7.30
2022-11-03T19:46:23.729Z,8.80
2022-11-03T19:48:56.865Z,8.30
2022-11-03T19:51:29.651Z,9.00
2022-11-03T19:54:01.421Z,8.70
2022-11-03T19:56:40.740Z,8.97
2022-11-03T19:59:14.429Z,8.10
2022-11-03T20:01:46.419Z,8.95
2022-11-03T20:04:18.304Z,9.20
2022-11-03T20:06:50.015Z,9.20
2022-11-03T20:09:24.357Z,9.13
2022-11-03T20:12:03.823Z,10.43
2022-11-03T20:14:36.357Z,8.37
2022-11-03T20:17:17.111Z,8.20
2022-11-03T20:19:48.877Z,9.27
2022-11-03T20:22:29.596Z,8.50
2022-11-03T20:25:03.193Z,8.90
2022-11-03T20:27:35.668Z,9.43
2022-11-03T20:30:13.081Z,8.95
2022-11-03T20:32:48.708Z,10.03
2022-11-03T20:35:27.264Z,8.20
2022-11-03T20:37:59.325Z,9.90
2022-11-03T20:40:32.099Z,8.47
2022-11-03T20:43:04.666Z,9.27
2022-11-03T20:45:36.402Z,9.00
2022-11-03T20:48:11.973Z,8.90
2022-11-03T20:50:43.732Z,8.87
2022-11-03T20:53:18.623Z,8.87
2022-11-03T20:55:51.542Z,9.47
2022-11-03T20:58:23.208Z,9.17
2022-11-03T21:00:54.944Z,9.77
2022-11-03T21:03:37.664Z,9.30
2022-11-03T21:06:19.970Z,10.77
2022-11-03T21:08:52.276Z,9.90
2022-11-03T21:11:29.695Z,10.23
2022-11-03T21:14:07.801Z,11.40
2022-11-03T21:16:58.050Z,9.60
2022-11-03T21:19:50.027Z,10.47
2022-11-03T21:25:17.502Z,11.80
2022-11-03T21:27:49.717Z,11.10
2022-11-03T21:30:22.284Z,10.23
2022-11-03T21:32:53.954Z,11.20
2022-11-03T21:35:25.653Z,10.83
2022-11-03T21:37:57.377Z,12.07
2022-11-03T21:40:29.105Z,11.33
2022-11-03T21:43:19.482Z,11.23
2022-11-03T21:45:51.379Z,11.20
2022-11-03T21:48:41.673Z,12.93
2022-11-03T21:51:13.390Z,12.80
2022-11-03T21:53:45.077Z,11.87
2022-11-03T21:56:17.280Z,10.63
2022-11-03T21:58:48.942Z,10.40
2022-11-03T22:01:20.832Z,10.10
2022-11-03T22:03:52.584Z,10.63
2022-11-03T22:06:24.283Z,10.37
2022-11-03T22:08:56.041Z,10.73
2022-11-03T22:11:27.685Z,11.20
2022-11-03T22:14:00.773Z,8.90
2022-11-03T22:16:39.686Z,10.77
2022-11-03T22:19:40.497Z,9.80
2022-11-03T22:22:33.091Z,10.10
2022-11-03T22:25:23.757Z,10.23
2022-11-03T22:27:55.873Z,10.77
2022-11-03T22:30:46.077Z,10.10
2022-11-03T22:33:17.855Z,12.50
2022-11-03T22:36:07.911Z,10.30
2022-11-03T22:38:58.316Z,9.67
2022-11-03T22:41:48.825Z,11.80
2022-11-03T22:44:39.504Z,10.95
2022-11-03T22:47:13.251Z,10.03
2022-11-03T22:49:46.244Z,10.50
2022-11-03T22:52:17.989Z,11.60
2022-11-03T22:54:49.728Z,9.17
2022-11-03T22:57:21.828Z,8.70
2022-11-03T22:59:53.545Z,10.33
2022-11-03T23:02:25.386Z,7.33
2022-11-03T23:04:57.209Z,7.10
2022-11-03T23:07:31.685Z,6.63
2022-11-03T23:10:06.270Z,6.33
2022-11-03T23:12:37.946Z,5.20
2022-11-03T23:15:28.248Z,4.07
2022-11-03T23:29:34.652Z,3.03
2022-11-03T23:32:07.040Z,2.40
2022-11-03T23:34:39.498Z,2.47
2022-11-03T23:37:11.160Z,1.77
2022-11-03T23:39:42.855Z,2.20
2022-11-03T23:42:14.504Z,2.73
2022-11-03T23:45:04.696Z,2.77
2022-11-03T23:47:55.093Z,2.50
2022-11-03T23:50:27.209Z,2.43
2022-11-03T23:52:58.875Z,2.63
2022-11-03T23:55:50.581Z,1.87
2022-11-03T23:58:22.928Z,2.67
